Latest Weather Observations for Sellicks Hill

IDS60801

Issued at 8:21 pm CDT Sunday 29 March 2020 (issued every 10 minutes, with the page automatically refreshed every 10 minutes)

About weather observations | Map of weather stations | Latest weather observations for SA | Other Formats
Station Details ID: 023886 Name: MOUNT TERRIBLE RADAR Lat: -35.33 Lon: 138.50 Height: 385.7 m
Data from the previous 72 hours. | See also: Recent months at Sellicks Hill
Date/Time
CDT
Temp
°C
App
Temp
°C
Dew
Point
°C
Rel
Hum
%
Delta-T
°C
Wind Press
QNH
hPa
Press
MSL
hPa
Rain since
9am
mm
Dir  Spd
km/h
Gust
km/h
Spd
kts
Gust
kts
29/08:00pm - - - - - WNW 7 17 4 9 - - -
29/07:30pm - - - - - W 9 19 5 10 - - -
29/07:00pm - - - - - WNW 9 17 5 9 - - -
29/06:30pm - - - - - W 7 22 4 12 - - -
29/06:00pm - - - - - WNW 7 17 4 9 - - -
29/05:30pm - - - - - WNW 11 26 6 14 - - -
29/05:00pm - - - - - WNW 13 24 7 13 - - -
29/04:30pm - - - - - WNW 11 19 6 10 - - -
29/04:00pm - - - - - WNW 9 20 5 11 - - -
29/03:30pm - - - - - WNW 9 19 5 10 - - -
29/03:00pm - - - - - NW 9 17 5 9 - - -
29/02:30pm - - - - - WNW 11 20 6 11 - - -
29/02:00pm - - - - - NW 7 17 4 9 - - -
29/01:30pm - - - - - WNW 7 17 4 9 - - -
29/01:00pm - - - - - WNW 9 17 5 9 - - -
29/12:30pm - - - - - WNW 9 17 5 9 - - -
29/12:00pm - - - - - WNW 9 19 5 10 - - -
29/11:30am - - - - - WNW 13 26 7 14 - - -
29/11:00am - - - - - NW 11 20 6 11 - - -
29/10:30am - - - - - NW 11 22 6 12 - - -
29/10:00am - - - - - WNW 11 26 6 14 - - -
29/09:30am - - - - - NW 13 28 7 15 - - -
29/09:00am - - - - - NNW 13 20 7 11 - - -
29/08:30am - - - - - N 11 19 6 10 - - -
29/08:00am - - - - - NNW 15 30 8 16 - - -
29/07:30am - - - - - NNW 13 22 7 12 - - -
29/07:00am - - - - - NW 9 15 5 8 - - -
29/06:30am - - - - - NW 17 32 9 17 - - -
29/06:00am - - - - - NNW 22 35 12 19 - - -
29/05:30am - - - - - NNW 17 32 9 17 - - -
29/05:00am - - - - - NNW 17 32 9 17 - - -
29/04:30am - - - - - N 17 32 9 17 - - -
29/04:00am - - - - - NNW 13 24 7 13 - - -
29/03:30am - - - - - N 15 22 8 12 - - -
29/03:00am - - - - - N 15 24 8 13 - - -
29/02:30am - - - - - N 17 28 9 15 - - -
29/02:00am - - - - - N 15 28 8 15 - - -
29/01:30am - - - - - NNW 13 22 7 12 - - -
29/01:00am - - - - - N 15 26 8 14 - - -
29/12:30am - - - - - N 15 26 8 14 - - -
29/12:00am - - - - - N 17 28 9 15 - - -
 
Date/Time
CDT
Temp
°C
App
Temp
°C
Dew
Point
°C
Rel
Hum
%
Delta-T
°C
Wind Press
QNH
hPa
Press
MSL
hPa
Rain since
9am
mm
Dir  Spd
km/h
Gust
km/h
Spd
kts
Gust
kts
28/11:30pm - - - - - N 15 26 8 14 - - -
28/11:00pm - - - - - N 13 22 7 12 - - -
28/10:30pm - - - - - N 11 20 6 11 - - -
28/10:00pm - - - - - N 11 17 6 9 - - -
28/09:30pm - - - - - N 7 13 4 7 - - -
28/09:00pm - - - - - N 6 9 3 5 - - -
28/08:30pm - - - - - N 7 13 4 7 - - -
28/08:00pm - - - - - N 7 9 4 5 - - -
28/07:30pm - - - - - N 4 7 2 4 - - -
28/07:00pm - - - - - NNW 6 9 3 5 - - -
28/06:30pm - - - - - NNW 7 9 4 5 - - -
28/06:00pm - - - - - NNW 7 13 4 7 - - -
28/05:30pm - - - - - NNW 9 15 5 8 - - -
28/05:00pm - - - - - NNW 9 19 5 10 - - -
28/04:30pm - - - - - NNW 11 20 6 11 - - -
28/04:00pm - - - - - NNW 13 22 7 12 - - -
28/03:30pm - - - - - NNW 13 20 7 11 - - -
28/03:00pm - - - - - NNW 13 20 7 11 - - -
28/02:30pm - - - - - NNW 13 20 7 11 - - -
28/02:00pm - - - - - NNW 15 26 8 14 - - -
28/01:30pm - - - - - NNW 15 28 8 15 - - -
28/01:00pm - - - - - NNW 17 30 9 16 - - -
28/12:30pm - - - - - NNW 15 28 8 15 - - -
28/12:00pm - - - - - NNW 15 30 8 16 - - -
28/11:30am - - - - - NNW 13 20 7 11 - - -
28/11:00am - - - - - NNW 13 24 7 13 - - -
28/10:30am - - - - - N 7 15 4 8 - - -
28/10:00am - - - - - N 7 11 4 6 - - -
28/09:30am - - - - - N 9 17 5 9 - - -
28/09:00am - - - - - N 11 17 6 9 - - -
28/08:30am - - - - - N 11 15 6 8 - - -
28/08:00am - - - - - N 11 15 6 8 - - -
28/07:30am - - - - - N 11 19 6 10 - - -
28/07:00am - - - - - N 9 15 5 8 - - -
28/06:30am - - - - - N 7 13 4 7 - - -
28/06:00am - - - - - N 9 15 5 8 - - -
28/05:30am - - - - - N 9 15 5 8 - - -
28/05:00am - - - - - N 9 17 5 9 - - -
28/04:30am - - - - - NNE 9 15 5 8 - - -
28/04:00am - - - - - NNE 9 13 5 7 - - -
28/03:30am - - - - - N 9 15 5 8 - - -
28/03:00am - - - - - N 9 13 5 7 - - -
28/02:30am - - - - - NNE 9 17 5 9 - - -
28/02:00am - - - - - NE 9 19 5 10 - - -
28/01:30am - - - - - NE 9 15 5 8 - - -
28/01:00am - - - - - NE 9 13 5 7 - - -
28/12:30am - - - - - NE 11 17 6 9 - - -
28/12:00am - - - - - ENE 17 20 9 11 - - -
 
Date/Time
CDT
Temp
°C
App
Temp
°C
Dew
Point
°C
Rel
Hum
%
Delta-T
°C
Wind Press
QNH
hPa
Press
MSL
hPa
Rain since
9am
mm
Dir  Spd
km/h
Gust
km/h
Spd
kts
Gust
kts
27/11:30pm - - - - - E 17 22 9 12 - - -
27/11:00pm - - - - - E 19 22 10 12 - - -
27/10:30pm - - - - - ESE 17 20 9 11 - - -
27/10:00pm - - - - - ESE 19 22 10 12 - - -
27/09:30pm - - - - - ESE 15 19 8 10 - - -
27/09:00pm - - - - - SE 17 19 9 10 - - -
27/08:30pm - - - - - SE 17 17 9 9 - - -
27/08:00pm - - - - - SSE 17 17 9 9 - - -
27/07:30pm - - - - - SSE 15 17 8 9 - - -
27/07:00pm - - - - - SSW 4 7 2 4 - - -
27/06:30pm - - - - - WSW 2 6 1 3 - - -
27/06:00pm - - - - - WSW 4 7 2 4 - - -
27/05:30pm - - - - - WSW 4 9 2 5 - - -
27/05:00pm - - - - - W 6 11 3 6 - - -
27/04:30pm - - - - - W 6 11 3 6 - - -
27/04:00pm - - - - - WNW 7 13 4 7 - - -
27/03:30pm - - - - - WNW 7 13 4 7 - - -
27/03:00pm - - - - - WNW 6 13 3 7 - - -
27/02:30pm - - - - - WNW 6 9 3 5 - - -
27/02:00pm - - - - - NW 7 17 4 9 - - -
27/01:30pm - - - - - NW 6 11 3 6 - - -
27/01:00pm - - - - - NW 6 9 3 5 - - -
27/12:30pm - - - - - NW 4 9 2 5 - - -
27/12:00pm - - - - - NNW 4 7 2 4 - - -
27/11:30am - - - - - NNW 4 7 2 4 - - -
27/11:00am - - - - - N 6 13 3 7 - - -
27/10:30am - - - - - NE 6 9 3 5 - - -
27/10:00am - - - - - E 9 13 5 7 - - -
27/09:30am - - - - - E 9 15 5 8 - - -
27/09:00am - - - - - E 13 17 7 9 - - -
27/08:30am - - - - - ESE 11 17 6 9 - - -
27/08:00am - - - - - ESE 13 17 7 9 - - -
27/07:30am - - - - - ESE 13 19 7 10 - - -
27/07:00am - - - - - ESE 13 17 7 9 - - -
27/06:30am - - - - - ESE 11 15 6 8 - - -
27/06:00am - - - - - ESE 13 17 7 9 - - -
27/05:30am - - - - - ESE 15 17 8 9 - - -
27/05:00am - - - - - ESE 11 15 6 8 - - -
27/04:30am - - - - - ESE 13 17 7 9 - - -
27/04:00am - - - - - ESE 13 19 7 10 - - -
27/03:30am - - - - - ESE 15 20 8 11 - - -
27/03:00am - - - - - ESE 17 22 9 12 - - -
27/02:30am - - - - - SE 19 22 10 12 - - -
27/02:00am - - - - - SE 19 20 10 11 - - -
27/01:30am - - - - - SE 19 24 10 13 - - -
27/01:00am - - - - - SE 22 24 12 13 - - -
27/12:30am - - - - - SE 24 26 13 14 - - -
27/12:00am - - - - - SE 26 28 14 15 - - -
 
Date/Time
CDT
Temp
°C
App
Temp
°C
Dew
Point
°C
Rel
Hum
%
Delta-T
°C
Wind Press
QNH
hPa
Press
MSL
hPa
Rain since
9am
mm
Dir  Spd
km/h
Gust
km/h
Spd
kts
Gust
kts
26/11:30pm - - - - - SE 26 30 14 16 - - -
26/11:00pm - - - - - SSE 28 32 15 17 - - -
26/10:30pm - - - - - SSE 28 30 15 16 - - -
26/10:00pm - - - - - SSE 26 32 14 17 - - -
26/09:30pm - - - - - SE 26 32 14 17 - - -
26/09:00pm - - - - - SSE 28 32 15 17 - - -
26/08:30pm - - - - - SSE 28 32 15 17 - - -

Other formats

Comma delimited format used in spreadsheet applications
http://www.bom.gov.au/fwo/IDS60801/IDS60801.95679.axf

JavaScript Object Notation format (JSON) in row-major order
http://www.bom.gov.au/fwo/IDS60801/IDS60801.95679.json

Data quality

Most of these data are generated automatically and are frequently updated. Quality checks on data are not normally performed. It is possible for incorrect values to appear. Refer to information at About Latest Weather Observations and please check the disclaimer before using these data.